EYKA/KUN METAR and TAF weather

Enter ICAO airport designator
Station Type Date Time Source
EYKA METAR 2020/11/27 14:20 UTC NOAA

EYKA 271420Z 30006KT 250V030 9000 -SHRA SCT009 BKN014CB OVC036 04/01 Q1013 R08/290095


Station Type Date Time Source
EYKA Decoded METAR 2020/11/27 14:20 UTC NOAA

Kaunas, Lithuania (EYKA) 54-54N 023-55-12E
Nov 27, 2020 - 09:20 AM EST / 2020.11.27 1420 UTC
Wind: from the WNW (300 degrees) at 7 MPH (6 KT) (direction variable):0
Visibility: 5 mile(s):0
Sky conditions: overcast
Weather: light rain showers; Cumulonimbus clouds observed
Temperature: 39 F (4 C)
Dew Point: 33 F (1 C)
Relative Humidity: 80%
Pressure (altimeter): 29.91 in. Hg (1013 hPa)
ob: EYKA 271420Z 30006KT 250V030 9000 -SHRA SCT009 BKN014CB OVC036 04/01 Q1013 R08/290095
cycle: 14

Station Type Date Time Source
EYKA TAF 2020/11/27 12:03 UTC NOAA

TAF TAF EYKA 271100Z 2712/2812 30010KT 6000 BKN015
TEMPO 2712/2718 3000 SHRA BKN005 BKN012CB
TEMPO 2718/2724 1500 SHSNRA BKN003 BKN010CB
BECMG 2800/2801 36010KT
TEMPO 2806/2812 0600 +SHSNRA BKN002 BKN010CB

Example: see airport list